sensor_id;sensor_type;location;lat;lon;timestamp;P1;durP1;ratioP1;P2;durP2;ratioP2
63534;SDS011;55128;50.230;18.944;2023-04-03T00:04:59;9.95;;;8.15;;
63534;SDS011;55128;50.230;18.944;2023-04-03T00:09:59;7.93;;;6.57;;
63534;SDS011;55128;50.230;18.944;2023-04-03T00:15:00;9.95;;;7.47;;
63534;SDS011;55128;50.230;18.944;2023-04-03T00:20:00;10.82;;;7.57;;
63534;SDS011;55128;50.230;18.944;2023-04-03T00:25:01;10.30;;;8.02;;
63534;SDS011;55128;50.230;18.944;2023-04-03T00:30:02;8.23;;;7.35;;
63534;SDS011;55128;50.230;18.944;2023-04-03T00:35:03;10.18;;;8.05;;
63534;SDS011;55128;50.230;18.944;2023-04-03T00:40:03;10.30;;;7.15;;
63534;SDS011;55128;50.230;18.944;2023-04-03T00:50:04;9.82;;;7.00;;
63534;SDS011;55128;50.230;18.944;2023-04-03T00:55:06;9.27;;;6.68;;
63534;SDS011;55128;50.230;18.944;2023-04-03T01:00:09;7.00;;;5.85;;
63534;SDS011;55128;50.230;18.944;2023-04-03T01:05:12;9.40;;;6.60;;
63534;SDS011;55128;50.230;18.944;2023-04-03T01:10:17;9.68;;;7.13;;
63534;SDS011;55128;50.230;18.944;2023-04-03T01:15:21;10.55;;;8.50;;
63534;SDS011;55128;50.230;18.944;2023-04-03T01:25:36;11.90;;;9.15;;
63534;SDS011;55128;50.230;18.944;2023-04-03T01:30:43;13.25;;;9.07;;
63534;SDS011;55128;50.230;18.944;2023-04-03T01:35:48;11.80;;;9.27;;
63534;SDS011;55128;50.230;18.944;2023-04-03T01:40:49;10.98;;;8.70;;
63534;SDS011;55128;50.230;18.944;2023-04-03T01:45:49;13.38;;;8.27;;
63534;SDS011;55128;50.230;18.944;2023-04-03T01:50:50;12.48;;;8.43;;
63534;SDS011;55128;50.230;18.944;2023-04-03T01:55:50;11.90;;;7.67;;
63534;SDS011;55128;50.230;18.944;2023-04-03T02:00:51;7.50;;;5.43;;
63534;SDS011;55128;50.230;18.944;2023-04-03T02:05:52;10.75;;;7.18;;
63534;SDS011;55128;50.230;18.944;2023-04-03T02:10:52;10.57;;;8.25;;
63534;SDS011;55128;50.230;18.944;2023-04-03T02:15:52;10.90;;;7.80;;
63534;SDS011;55128;50.230;18.944;2023-04-03T02:20:53;9.83;;;7.97;;
63534;SDS011;55128;50.230;18.944;2023-04-03T02:26:01;11.93;;;8.10;;
63534;SDS011;55128;50.230;18.944;2023-04-03T02:31:03;14.18;;;8.27;;
63534;SDS011;55128;50.230;18.944;2023-04-03T02:36:04;9.82;;;6.90;;
63534;SDS011;55128;50.230;18.944;2023-04-03T02:41:07;13.10;;;7.57;;
63534;SDS011;55128;50.230;18.944;2023-04-03T02:46:09;12.13;;;7.38;;
63534;SDS011;55128;50.230;18.944;2023-04-03T02:51:10;9.52;;;7.03;;
63534;SDS011;55128;50.230;18.944;2023-04-03T02:56:10;9.17;;;6.03;;
63534;SDS011;55128;50.230;18.944;2023-04-03T03:01:11;9.52;;;6.93;;
63534;SDS011;55128;50.230;18.944;2023-04-03T03:06:12;10.20;;;6.90;;
63534;SDS011;55128;50.230;18.944;2023-04-03T03:11:17;9.70;;;6.40;;
63534;SDS011;55128;50.230;18.944;2023-04-03T03:16:18;8.25;;;5.93;;
63534;SDS011;55128;50.230;18.944;2023-04-03T03:21:18;11.25;;;7.05;;
63534;SDS011;55128;50.230;18.944;2023-04-03T03:26:19;13.27;;;8.25;;
63534;SDS011;55128;50.230;18.944;2023-04-03T03:31:19;10.55;;;6.07;;
63534;SDS011;55128;50.230;18.944;2023-04-03T03:36:20;7.53;;;5.32;;
63534;SDS011;55128;50.230;18.944;2023-04-03T03:41:20;8.33;;;4.53;;
63534;SDS011;55128;50.230;18.944;2023-04-03T03:46:21;8.25;;;4.28;;
63534;SDS011;55128;50.230;18.944;2023-04-03T03:51:21;8.80;;;4.50;;
63534;SDS011;55128;50.230;18.944;2023-04-03T03:56:21;7.60;;;4.37;;
63534;SDS011;55128;50.230;18.944;2023-04-03T04:01:23;8.93;;;4.28;;
63534;SDS011;55128;50.230;18.944;2023-04-03T04:06:23;8.32;;;4.38;;
63534;SDS011;55128;50.230;18.944;2023-04-03T04:11:24;13.07;;;4.97;;
63534;SDS011;55128;50.230;18.944;2023-04-03T04:16:24;5.88;;;4.13;;
63534;SDS011;55128;50.230;18.944;2023-04-03T04:21:25;5.65;;;3.83;;
63534;SDS011;55128;50.230;18.944;2023-04-03T04:26:25;10.95;;;5.30;;
63534;SDS011;55128;50.230;18.944;2023-04-03T04:31:26;8.68;;;3.58;;
63534;SDS011;55128;50.230;18.944;2023-04-03T04:36:26;8.07;;;3.47;;
63534;SDS011;55128;50.230;18.944;2023-04-03T04:41:27;8.07;;;4.15;;
63534;SDS011;55128;50.230;18.944;2023-04-03T04:46:27;8.88;;;5.20;;
63534;SDS011;55128;50.230;18.944;2023-04-03T04:51:28;8.10;;;3.92;;
63534;SDS011;55128;50.230;18.944;2023-04-03T04:56:28;8.27;;;4.40;;
63534;SDS011;55128;50.230;18.944;2023-04-03T05:01:29;6.07;;;3.83;;
63534;SDS011;55128;50.230;18.944;2023-04-03T05:06:29;9.05;;;4.13;;
63534;SDS011;55128;50.230;18.944;2023-04-03T05:11:31;7.53;;;3.92;;
63534;SDS011;55128;50.230;18.944;2023-04-03T05:16:35;7.03;;;4.00;;
63534;SDS011;55128;50.230;18.944;2023-04-03T05:21:37;8.77;;;3.88;;
63534;SDS011;55128;50.230;18.944;2023-04-03T05:26:37;9.18;;;4.53;;
63534;SDS011;55128;50.230;18.944;2023-04-03T05:31:38;5.55;;;4.30;;
63534;SDS011;55128;50.230;18.944;2023-04-03T05:36:38;9.48;;;5.20;;
63534;SDS011;55128;50.230;18.944;2023-04-03T05:41:39;7.30;;;3.72;;
63534;SDS011;55128;50.230;18.944;2023-04-03T05:46:39;10.57;;;4.72;;
63534;SDS011;55128;50.230;18.944;2023-04-03T05:51:40;9.52;;;4.60;;
63534;SDS011;55128;50.230;18.944;2023-04-03T05:56:40;7.32;;;4.78;;
63534;SDS011;55128;50.230;18.944;2023-04-03T06:01:41;8.68;;;5.00;;
63534;SDS011;55128;50.230;18.944;2023-04-03T06:06:49;9.38;;;5.10;;
63534;SDS011;55128;50.230;18.944;2023-04-03T06:11:54;12.40;;;6.43;;
63534;SDS011;55128;50.230;18.944;2023-04-03T06:16:55;8.05;;;5.10;;
63534;SDS011;55128;50.230;18.944;2023-04-03T06:38:41;16.77;;;7.32;;
63534;SDS011;55128;50.230;18.944;2023-04-03T06:43:55;9.52;;;4.78;;
63534;SDS011;55128;50.230;18.944;2023-04-03T06:49:50;6.82;;;4.43;;
63534;SDS011;55128;50.230;18.944;2023-04-03T06:54:50;8.95;;;3.85;;
63534;SDS011;55128;50.230;18.944;2023-04-03T07:00:00;4.85;;;3.15;;
63534;SDS011;55128;50.230;18.944;2023-04-03T07:05:00;6.40;;;3.53;;
63534;SDS011;55128;50.230;18.944;2023-04-03T07:10:01;30.65;;;8.02;;
63534;SDS011;55128;50.230;18.944;2023-04-03T07:15:02;8.27;;;4.32;;
63534;SDS011;55128;50.230;18.944;2023-04-03T07:20:03;6.85;;;4.05;;
63534;SDS011;55128;50.230;18.944;2023-04-03T07:25:10;7.60;;;3.85;;
63534;SDS011;55128;50.230;18.944;2023-04-03T07:30:16;6.80;;;3.38;;
63534;SDS011;55128;50.230;18.944;2023-04-03T07:52:55;6.65;;;3.80;;
63534;SDS011;55128;50.230;18.944;2023-04-03T07:57:57;9.32;;;4.10;;
63534;SDS011;55128;50.230;18.944;2023-04-03T08:03:01;9.63;;;4.65;;
63534;SDS011;55128;50.230;18.944;2023-04-03T08:08:15;9.13;;;3.63;;
63534;SDS011;55128;50.230;18.944;2023-04-03T08:13:18;8.15;;;3.40;;
63534;SDS011;55128;50.230;18.944;2023-04-03T08:40:06;6.82;;;2.97;;
63534;SDS011;55128;50.230;18.944;2023-04-03T08:45:27;3.53;;;1.70;;
63534;SDS011;55128;50.230;18.944;2023-04-03T08:50:41;3.75;;;1.90;;
63534;SDS011;55128;50.230;18.944;2023-04-03T08:55:46;5.80;;;2.42;;
63534;SDS011;55128;50.230;18.944;2023-04-03T09:00:53;4.07;;;1.90;;
63534;SDS011;55128;50.230;18.944;2023-04-03T09:21:57;4.95;;;2.17;;
63534;SDS011;55128;50.230;18.944;2023-04-03T09:27:04;4.70;;;2.00;;
63534;SDS011;55128;50.230;18.944;2023-04-03T09:32:21;2.90;;;1.45;;
63534;SDS011;55128;50.230;18.944;2023-04-03T09:37:37;5.72;;;2.33;;
63534;SDS011;55128;50.230;18.944;2023-04-03T09:42:45;4.45;;;1.52;;
63534;SDS011;55128;50.230;18.944;2023-04-03T09:47:46;3.03;;;1.48;;
63534;SDS011;55128;50.230;18.944;2023-04-03T09:52:48;2.13;;;1.20;;
63534;SDS011;55128;50.230;18.944;2023-04-03T09:57:51;3.72;;;1.52;;
63534;SDS011;55128;50.230;18.944;2023-04-03T10:02:55;2.95;;;1.50;;
63534;SDS011;55128;50.230;18.944;2023-04-03T10:13:13;7.25;;;1.50;;
63534;SDS011;55128;50.230;18.944;2023-04-03T10:34:05;3.92;;;1.40;;
63534;SDS011;55128;50.230;18.944;2023-04-03T10:39:30;5.43;;;1.45;;
63534;SDS011;55128;50.230;18.944;2023-04-03T10:44:48;4.28;;;1.75;;
63534;SDS011;55128;50.230;18.944;2023-04-03T10:56:31;5.90;;;2.00;;
63534;SDS011;55128;50.230;18.944;2023-04-03T11:01:21;4.85;;;2.05;;
63534;SDS011;55128;50.230;18.944;2023-04-03T11:06:31;4.72;;;2.00;;
63534;SDS011;55128;50.230;18.944;2023-04-03T11:11:38;3.35;;;1.92;;
63534;SDS011;55128;50.230;18.944;2023-04-03T11:16:41;4.78;;;2.13;;
63534;SDS011;55128;50.230;18.944;2023-04-03T11:21:46;4.53;;;1.50;;
63534;SDS011;55128;50.230;18.944;2023-04-03T11:26:56;2.33;;;1.40;;
63534;SDS011;55128;50.230;18.944;2023-04-03T11:42:37;2.70;;;1.75;;
63534;SDS011;55128;50.230;18.944;2023-04-03T11:47:47;3.63;;;1.40;;
63534;SDS011;55128;50.230;18.944;2023-04-03T12:02:57;2.47;;;1.40;;
63534;SDS011;55128;50.230;18.944;2023-04-03T12:08:15;13.48;;;5.43;;
63534;SDS011;55128;50.230;18.944;2023-04-03T12:13:24;3.42;;;1.50;;
63534;SDS011;55128;50.230;18.944;2023-04-03T12:18:41;2.67;;;1.52;;
63534;SDS011;55128;50.230;18.944;2023-04-03T12:29:12;3.20;;;1.73;;
63534;SDS011;55128;50.230;18.944;2023-04-03T12:34:33;5.88;;;2.20;;
63534;SDS011;55128;50.230;18.944;2023-04-03T12:49:59;3.42;;;1.52;;
63534;SDS011;55128;50.230;18.944;2023-04-03T12:55:00;2.83;;;1.80;;
63534;SDS011;55128;50.230;18.944;2023-04-03T13:00:20;3.83;;;1.77;;
63534;SDS011;55128;50.230;18.944;2023-04-03T13:05:22;3.65;;;1.95;;
63534;SDS011;55128;50.230;18.944;2023-04-03T13:10:23;5.00;;;2.28;;
63534;SDS011;55128;50.230;18.944;2023-04-03T13:15:28;3.83;;;1.83;;
63534;SDS011;55128;50.230;18.944;2023-04-03T13:20:31;5.03;;;2.15;;
63534;SDS011;55128;50.230;18.944;2023-04-03T13:25:36;4.60;;;2.00;;
63534;SDS011;55128;50.230;18.944;2023-04-03T13:30:41;4.15;;;1.85;;
63534;SDS011;55128;50.230;18.944;2023-04-03T13:36:54;4.43;;;1.83;;
63534;SDS011;55128;50.230;18.944;2023-04-03T13:41:37;2.80;;;1.67;;
63534;SDS011;55128;50.230;18.944;2023-04-03T13:46:40;4.93;;;1.15;;
63534;SDS011;55128;50.230;18.944;2023-04-03T13:51:41;3.85;;;1.60;;
63534;SDS011;55128;50.230;18.944;2023-04-03T13:56:41;4.93;;;1.85;;
63534;SDS011;55128;50.230;18.944;2023-04-03T14:06:45;3.10;;;2.00;;
63534;SDS011;55128;50.230;18.944;2023-04-03T14:11:47;5.18;;;2.15;;
63534;SDS011;55128;50.230;18.944;2023-04-03T14:16:56;2.50;;;1.52;;
63534;SDS011;55128;50.230;18.944;2023-04-03T14:22:00;2.78;;;1.90;;
63534;SDS011;55128;50.230;18.944;2023-04-03T14:27:11;2.75;;;1.42;;
63534;SDS011;55128;50.230;18.944;2023-04-03T14:32:16;4.28;;;1.90;;
63534;SDS011;55128;50.230;18.944;2023-04-03T14:37:21;3.50;;;1.90;;
63534;SDS011;55128;50.230;18.944;2023-04-03T14:42:24;4.10;;;1.80;;
63534;SDS011;55128;50.230;18.944;2023-04-03T14:47:28;3.15;;;1.70;;
63534;SDS011;55128;50.230;18.944;2023-04-03T14:52:31;3.85;;;1.73;;
63534;SDS011;55128;50.230;18.944;2023-04-03T14:57:34;3.42;;;1.73;;
63534;SDS011;55128;50.230;18.944;2023-04-03T15:02:39;3.28;;;1.95;;
63534;SDS011;55128;50.230;18.944;2023-04-03T15:07:41;2.67;;;1.40;;
63534;SDS011;55128;50.230;18.944;2023-04-03T15:12:43;3.00;;;1.40;;
63534;SDS011;55128;50.230;18.944;2023-04-03T15:17:44;5.97;;;2.00;;
63534;SDS011;55128;50.230;18.944;2023-04-03T15:22:46;3.45;;;1.80;;
63534;SDS011;55128;50.230;18.944;2023-04-03T15:27:46;5.05;;;2.95;;
63534;SDS011;55128;50.230;18.944;2023-04-03T15:32:48;3.72;;;2.25;;
63534;SDS011;55128;50.230;18.944;2023-04-03T15:37:48;3.40;;;1.80;;
63534;SDS011;55128;50.230;18.944;2023-04-03T15:42:49;6.53;;;2.28;;
63534;SDS011;55128;50.230;18.944;2023-04-03T15:47:49;6.30;;;2.30;;
63534;SDS011;55128;50.230;18.944;2023-04-03T15:52:50;3.85;;;1.85;;
63534;SDS011;55128;50.230;18.944;2023-04-03T15:57:54;4.70;;;1.75;;
63534;SDS011;55128;50.230;18.944;2023-04-03T16:02:55;4.43;;;1.80;;
63534;SDS011;55128;50.230;18.944;2023-04-03T16:13:00;5.70;;;2.50;;
63534;SDS011;55128;50.230;18.944;2023-04-03T16:18:01;5.57;;;2.58;;
63534;SDS011;55128;50.230;18.944;2023-04-03T16:23:02;3.33;;;2.05;;
63534;SDS011;55128;50.230;18.944;2023-04-03T16:28:02;2.65;;;1.52;;
63534;SDS011;55128;50.230;18.944;2023-04-03T16:33:03;5.18;;;2.53;;
63534;SDS011;55128;50.230;18.944;2023-04-03T16:38:03;3.92;;;1.90;;
63534;SDS011;55128;50.230;18.944;2023-04-03T16:43:04;14.80;;;5.95;;
63534;SDS011;55128;50.230;18.944;2023-04-03T16:48:05;7.13;;;2.50;;
63534;SDS011;55128;50.230;18.944;2023-04-03T16:53:05;8.15;;;4.00;;
63534;SDS011;55128;50.230;18.944;2023-04-03T16:58:09;7.32;;;2.92;;
63534;SDS011;55128;50.230;18.944;2023-04-03T17:03:10;7.10;;;3.10;;
63534;SDS011;55128;50.230;18.944;2023-04-03T17:08:10;4.85;;;2.67;;
63534;SDS011;55128;50.230;18.944;2023-04-03T17:13:11;7.22;;;2.05;;
63534;SDS011;55128;50.230;18.944;2023-04-03T17:18:11;4.47;;;2.30;;
63534;SDS011;55128;50.230;18.944;2023-04-03T17:23:12;7.25;;;3.50;;
63534;SDS011;55128;50.230;18.944;2023-04-03T17:28:12;5.37;;;2.93;;
63534;SDS011;55128;50.230;18.944;2023-04-03T17:33:12;7.13;;;3.25;;
63534;SDS011;55128;50.230;18.944;2023-04-03T17:38:13;6.78;;;3.35;;
63534;SDS011;55128;50.230;18.944;2023-04-03T17:43:13;4.88;;;2.60;;
63534;SDS011;55128;50.230;18.944;2023-04-03T17:48:15;5.70;;;3.50;;
63534;SDS011;55128;50.230;18.944;2023-04-03T17:53:15;12.85;;;4.25;;
63534;SDS011;55128;50.230;18.944;2023-04-03T17:58:15;9.90;;;4.27;;
63534;SDS011;55128;50.230;18.944;2023-04-03T18:03:16;7.90;;;4.07;;
63534;SDS011;55128;50.230;18.944;2023-04-03T18:08:16;6.63;;;3.70;;
63534;SDS011;55128;50.230;18.944;2023-04-03T18:13:17;7.47;;;3.95;;
63534;SDS011;55128;50.230;18.944;2023-04-03T18:28:59;6.95;;;3.38;;
63534;SDS011;55128;50.230;18.944;2023-04-03T18:34:01;8.25;;;4.13;;
63534;SDS011;55128;50.230;18.944;2023-04-03T18:39:02;8.98;;;4.70;;
63534;SDS011;55128;50.230;18.944;2023-04-03T18:44:06;9.55;;;4.32;;
63534;SDS011;55128;50.230;18.944;2023-04-03T18:49:12;10.98;;;5.07;;
63534;SDS011;55128;50.230;18.944;2023-04-03T18:54:12;8.18;;;3.80;;
63534;SDS011;55128;50.230;18.944;2023-04-03T18:59:13;8.10;;;4.55;;
63534;SDS011;55128;50.230;18.944;2023-04-03T19:04:14;11.38;;;4.50;;
63534;SDS011;55128;50.230;18.944;2023-04-03T19:09:15;10.23;;;4.60;;
63534;SDS011;55128;50.230;18.944;2023-04-03T19:14:17;10.20;;;4.40;;
63534;SDS011;55128;50.230;18.944;2023-04-03T19:19:18;11.57;;;5.35;;
63534;SDS011;55128;50.230;18.944;2023-04-03T19:24:26;9.80;;;4.82;;
63534;SDS011;55128;50.230;18.944;2023-04-03T19:29:26;10.47;;;5.90;;
63534;SDS011;55128;50.230;18.944;2023-04-03T19:34:27;19.05;;;9.95;;
63534;SDS011;55128;50.230;18.944;2023-04-03T19:39:37;15.13;;;7.28;;
63534;SDS011;55128;50.230;18.944;2023-04-03T19:44:41;12.95;;;5.80;;
63534;SDS011;55128;50.230;18.944;2023-04-03T19:49:44;13.50;;;5.63;;
63534;SDS011;55128;50.230;18.944;2023-04-03T19:54:57;12.68;;;5.70;;
63534;SDS011;55128;50.230;18.944;2023-04-03T20:06:24;9.00;;;4.60;;
63534;SDS011;55128;50.230;18.944;2023-04-03T20:11:25;8.23;;;4.38;;
63534;SDS011;55128;50.230;18.944;2023-04-03T20:16:26;9.60;;;4.68;;
63534;SDS011;55128;50.230;18.944;2023-04-03T20:21:30;9.73;;;4.50;;
63534;SDS011;55128;50.230;18.944;2023-04-03T20:26:33;11.57;;;4.95;;
63534;SDS011;55128;50.230;18.944;2023-04-03T20:31:40;11.63;;;5.28;;
63534;SDS011;55128;50.230;18.944;2023-04-03T20:36:41;10.70;;;4.80;;
63534;SDS011;55128;50.230;18.944;2023-04-03T20:41:42;12.98;;;6.22;;
63534;SDS011;55128;50.230;18.944;2023-04-03T20:46:44;10.45;;;6.00;;
63534;SDS011;55128;50.230;18.944;2023-04-03T20:51:45;17.77;;;10.15;;
63534;SDS011;55128;50.230;18.944;2023-04-03T20:56:46;13.52;;;6.93;;
63534;SDS011;55128;50.230;18.944;2023-04-03T21:01:48;16.40;;;7.90;;
63534;SDS011;55128;50.230;18.944;2023-04-03T21:23:06;12.95;;;5.82;;
63534;SDS011;55128;50.230;18.944;2023-04-03T21:28:07;14.27;;;6.25;;
63534;SDS011;55128;50.230;18.944;2023-04-03T21:33:08;14.40;;;6.78;;
63534;SDS011;55128;50.230;18.944;2023-04-03T21:38:08;14.02;;;5.93;;
63534;SDS011;55128;50.230;18.944;2023-04-03T21:43:08;13.50;;;5.65;;
63534;SDS011;55128;50.230;18.944;2023-04-03T21:48:08;18.85;;;6.00;;
63534;SDS011;55128;50.230;18.944;2023-04-03T21:53:09;12.95;;;6.05;;
63534;SDS011;55128;50.230;18.944;2023-04-03T21:58:10;13.20;;;5.80;;
63534;SDS011;55128;50.230;18.944;2023-04-03T22:03:10;11.43;;;5.93;;
63534;SDS011;55128;50.230;18.944;2023-04-03T22:08:12;11.70;;;6.72;;
63534;SDS011;55128;50.230;18.944;2023-04-03T22:13:13;10.43;;;5.18;;
63534;SDS011;55128;50.230;18.944;2023-04-03T22:18:13;11.98;;;5.10;;
63534;SDS011;55128;50.230;18.944;2023-04-03T22:23:14;9.30;;;5.23;;
63534;SDS011;55128;50.230;18.944;2023-04-03T22:28:14;13.15;;;5.80;;
63534;SDS011;55128;50.230;18.944;2023-04-03T22:33:15;9.80;;;4.72;;
63534;SDS011;55128;50.230;18.944;2023-04-03T22:38:16;13.25;;;5.50;;
63534;SDS011;55128;50.230;18.944;2023-04-03T22:43:16;12.15;;;5.45;;
63534;SDS011;55128;50.230;18.944;2023-04-03T22:48:17;10.73;;;5.13;;
63534;SDS011;55128;50.230;18.944;2023-04-03T22:53:18;9.63;;;4.82;;
63534;SDS011;55128;50.230;18.944;2023-04-03T22:58:18;10.23;;;4.60;;
63534;SDS011;55128;50.230;18.944;2023-04-03T23:03:23;9.07;;;5.00;;
63534;SDS011;55128;50.230;18.944;2023-04-03T23:08:23;10.07;;;5.22;;
63534;SDS011;55128;50.230;18.944;2023-04-03T23:13:23;8.52;;;4.43;;
63534;SDS011;55128;50.230;18.944;2023-04-03T23:18:25;9.43;;;4.95;;
63534;SDS011;55128;50.230;18.944;2023-04-03T23:23:28;9.63;;;5.20;;
63534;SDS011;55128;50.230;18.944;2023-04-03T23:28:28;8.27;;;5.07;;
63534;SDS011;55128;50.230;18.944;2023-04-03T23:33:29;9.82;;;4.80;;
63534;SDS011;55128;50.230;18.944;2023-04-03T23:38:30;8.93;;;4.82;;
63534;SDS011;55128;50.230;18.944;2023-04-03T23:43:30;9.27;;;5.03;;
63534;SDS011;55128;50.230;18.944;2023-04-03T23:48:31;9.68;;;5.05;;
63534;SDS011;55128;50.230;18.944;2023-04-03T23:53:31;8.32;;;5.05;;
63534;SDS011;55128;50.230;18.944;2023-04-03T23:58:32;9.82;;;4.75;;
